createdAt,value
2023-01-30T00:01:23.929Z,98402.38
2023-01-30T00:03:50.897Z,98395.78
2023-01-30T00:06:17.814Z,98380.28
2023-01-30T00:08:45.422Z,98385.81
2023-01-30T00:11:13.437Z,98380.56
2023-01-30T00:13:41.493Z,98381.25
2023-01-30T00:16:12.190Z,98371.72
2023-01-30T00:18:40.285Z,98379.69
2023-01-30T00:21:11.766Z,98379.13
2023-01-30T00:23:38.813Z,98375.56
2023-01-30T00:26:06.249Z,98371.72
2023-01-30T00:28:34.614Z,98370.06
2023-01-30T00:31:01.856Z,98361.47
2023-01-30T00:33:29.052Z,98361.75
2023-01-30T00:35:57.165Z,98358.41
2023-01-30T00:38:24.810Z,98355.41
2023-01-30T00:40:51.770Z,98343.47
2023-01-30T00:43:39.133Z,98339.00
2023-01-30T00:46:31.209Z,98335.31
2023-01-30T00:49:00.116Z,98327.66
2023-01-30T00:51:27.145Z,98334.13
2023-01-30T00:53:54.391Z,98335.69
2023-01-30T00:56:21.347Z,98332.69
2023-01-30T00:58:48.409Z,98324.34
2023-01-30T01:01:15.473Z,98321.28
2023-01-30T01:03:43.570Z,98320.63
2023-01-30T01:06:17.740Z,98321.72
2023-01-30T01:08:47.997Z,98314.69
2023-01-30T01:11:24.686Z,98310.19
2023-01-30T01:13:53.078Z,98309.81
2023-01-30T01:16:20.838Z,98306.75
2023-01-30T01:18:48.519Z,98311.16
2023-01-30T01:21:15.610Z,98311.72
2023-01-30T01:23:42.546Z,98308.41
2023-01-30T01:26:09.555Z,98305.53
2023-01-30T01:28:36.763Z,98294.72
2023-01-30T01:31:11.009Z,98294.16
2023-01-30T01:33:38.427Z,98291.00
2023-01-30T01:36:05.934Z,98284.81
2023-01-30T01:38:32.926Z,98278.34
2023-01-30T01:41:03.236Z,98277.53
2023-01-30T01:43:32.239Z,98273.25
2023-01-30T01:46:02.039Z,98270.03
2023-01-30T01:48:31.495Z,98273.50
2023-01-30T01:51:03.821Z,98260.50
2023-01-30T01:53:33.755Z,98251.69
2023-01-30T01:56:02.568Z,98245.47
2023-01-30T01:58:37.559Z,98245.69
2023-01-30T02:01:04.927Z,98233.25
2023-01-30T02:03:34.706Z,98234.75
2023-01-30T02:06:02.864Z,98232.38
2023-01-30T02:08:33.672Z,98219.13
2023-01-30T02:11:19.152Z,98225.97
2023-01-30T02:13:47.112Z,98221.44
2023-01-30T02:16:14.265Z,98223.81
2023-01-30T02:18:42.254Z,98224.06
2023-01-30T02:21:27.722Z,98216.63
2023-01-30T02:24:10.259Z,98221.44
2023-01-30T02:26:37.207Z,98210.50
2023-01-30T02:29:04.128Z,98213.81
2023-01-30T02:31:37.403Z,98204.72
2023-01-30T02:34:23.644Z,98206.16
2023-01-30T02:36:57.748Z,98205.63
2023-01-30T02:39:38.255Z,98192.41
2023-01-30T02:42:12.270Z,98196.00
2023-01-30T02:44:43.965Z,98194.34
2023-01-30T02:47:17.969Z,98181.13
2023-01-30T02:49:52.430Z,98185.22
2023-01-30T02:52:20.907Z,98178.06
2023-01-30T02:54:48.042Z,98182.47
2023-01-30T02:57:20.836Z,98179.97
2023-01-30T02:59:54.281Z,98178.31
2023-01-30T03:02:37.501Z,98170.84
2023-01-30T03:05:07.590Z,98169.72
2023-01-30T03:07:53.475Z,98173.66
2023-01-30T03:10:27.315Z,98166.47
2023-01-30T03:13:03.815Z,98161.91
2023-01-30T03:15:34.927Z,98147.16
2023-01-30T03:18:02.685Z,98148.66
2023-01-30T03:20:29.918Z,98133.88
2023-01-30T03:22:56.929Z,98127.91
2023-01-30T03:25:28.707Z,98127.09
2023-01-30T03:27:56.275Z,98122.00
2023-01-30T03:30:25.472Z,98122.66
2023-01-30T03:32:58.047Z,98120.06
2023-01-30T03:35:25.471Z,98124.66
2023-01-30T03:37:54.949Z,98115.13
2023-01-30T03:40:22.793Z,98118.44
2023-01-30T03:42:51.337Z,98113.72
2023-01-30T03:45:18.677Z,98106.69
2023-01-30T03:47:47.642Z,98104.91
2023-01-30T03:50:16.367Z,98096.44
2023-01-30T03:52:45.097Z,98086.50
2023-01-30T03:55:17.021Z,98080.28
2023-01-30T03:57:44.604Z,98086.50
2023-01-30T04:00:12.157Z,98077.47
2023-01-30T04:02:48.567Z,98075.81
2023-01-30T04:05:18.393Z,98072.22
2023-01-30T04:07:51.608Z,98060.09
2023-01-30T04:10:20.211Z,98062.72
2023-01-30T04:12:47.730Z,98058.19
2023-01-30T04:15:15.203Z,98025.31
2023-01-30T04:17:50.106Z,98042.72
2023-01-30T04:20:50.115Z,98037.88
2023-01-30T04:23:22.618Z,98020.59
2023-01-30T04:25:50.807Z,98044.91
2023-01-30T04:28:20.243Z,98042.97
2023-01-30T04:30:47.901Z,98026.41
2023-01-30T04:33:40.077Z,98025.59
2023-01-30T04:36:09.782Z,98025.59
2023-01-30T04:38:37.516Z,98032.31
2023-01-30T04:41:05.480Z,98028.44
2023-01-30T04:43:35.768Z,98033.59
2023-01-30T04:46:02.743Z,98027.22
2023-01-30T04:48:30.326Z,98017.03
2023-01-30T04:51:00.189Z,98011.91
2023-01-30T04:53:27.429Z,98017.72
2023-01-30T04:55:54.615Z,98002.13
2023-01-30T04:58:21.820Z,97995.53
2023-01-30T05:00:49.103Z,97999.38
2023-01-30T05:03:16.603Z,98000.09
2023-01-30T05:05:46.121Z,98010.13
2023-01-30T05:08:14.446Z,97987.41
2023-01-30T05:10:42.010Z,97984.25
2023-01-30T05:13:09.120Z,97989.50
2023-01-30T05:15:36.092Z,97988.25
2023-01-30T05:18:03.174Z,97966.84
2023-01-30T05:20:30.220Z,97974.44
2023-01-30T05:22:57.313Z,97968.66
2023-01-30T05:25:24.367Z,97970.03
2023-01-30T05:27:51.408Z,97959.72
2023-01-30T05:30:18.464Z,97959.44
2023-01-30T05:32:45.579Z,97956.13
2023-01-30T05:35:12.585Z,97946.75
2023-01-30T05:37:40.061Z,97942.72
2023-01-30T05:40:07.376Z,97931.09
2023-01-30T05:42:34.339Z,97941.47
2023-01-30T05:45:01.341Z,97929.84
2023-01-30T05:47:28.790Z,97940.78
2023-01-30T05:49:56.879Z,97925.44
2023-01-30T05:52:23.895Z,97923.69
2023-01-30T05:54:52.159Z,97930.69
2023-01-30T05:57:19.322Z,97915.13
2023-01-30T05:59:47.708Z,97908.91
2023-01-30T06:02:14.953Z,97907.09
2023-01-30T06:04:42.016Z,97904.63
2023-01-30T06:07:09.030Z,97904.22
2023-01-30T06:09:36.056Z,97897.31
2023-01-30T06:12:03.037Z,97907.09
2023-01-30T06:14:30.154Z,97900.09
2023-01-30T06:16:57.445Z,97893.88
2023-01-30T06:19:24.742Z,97908.78
2023-01-30T06:21:51.999Z,97902.28
2023-01-30T06:24:19.205Z,97905.03
2023-01-30T06:26:46.308Z,97903.41
2023-01-30T06:29:13.554Z,97901.03
2023-01-30T06:31:40.618Z,97896.19
2023-01-30T06:34:07.872Z,97902.56
2023-01-30T06:36:35.160Z,97901.19
2023-01-30T06:39:02.306Z,97900.63
2023-01-30T06:41:29.324Z,97885.19
2023-01-30T06:43:56.402Z,97895.25
2023-01-30T06:46:23.678Z,97871.34
2023-01-30T06:48:50.706Z,97876.03
2023-01-30T06:51:17.925Z,97877.72
2023-01-30T06:53:44.956Z,97876.59
2023-01-30T06:56:12.021Z,97878.41
2023-01-30T06:58:39.043Z,97881.28
2023-01-30T07:01:05.972Z,97884.63
2023-01-30T07:03:33.210Z,97885.28
2023-01-30T07:06:00.512Z,97873.56
2023-01-30T07:08:27.509Z,97882.97
2023-01-30T07:10:54.525Z,97891.66
2023-01-30T07:13:21.481Z,97882.66
2023-01-30T07:15:48.599Z,97880.75
2023-01-30T07:18:17.587Z,97881.28
2023-01-30T07:20:48.474Z,97865.84
2023-01-30T07:23:16.136Z,97869.03
2023-01-30T07:25:49.932Z,97849.69
2023-01-30T07:28:17.273Z,97869.72
2023-01-30T07:30:45.943Z,97873.88
2023-01-30T07:33:32.349Z,97853.00
2023-01-30T07:35:59.454Z,97857.56
2023-01-30T07:38:26.666Z,97839.47
2023-01-30T07:40:53.727Z,97849.81
2023-01-30T07:43:20.681Z,97845.13
2023-01-30T07:45:48.509Z,97837.66
2023-01-30T07:48:16.812Z,97836.81
2023-01-30T07:50:50.853Z,97826.88
2023-01-30T07:53:18.939Z,97830.88
2023-01-30T07:55:46.403Z,97827.97
2023-01-30T07:58:15.044Z,97824.66
2023-01-30T08:00:42.250Z,97814.44
2023-01-30T08:03:13.729Z,97822.59
2023-01-30T08:05:44.325Z,97824.66
2023-01-30T08:08:11.656Z,97813.88
2023-01-30T08:10:38.907Z,97815.22
2023-01-30T08:13:06.239Z,97816.06
2023-01-30T08:15:33.748Z,97810.38
2023-01-30T08:18:01.412Z,97800.56
2023-01-30T08:20:28.609Z,97802.06
2023-01-30T08:23:02.680Z,97807.50
2023-01-30T08:25:32.202Z,97797.25
2023-01-30T08:28:00.537Z,97795.31
2023-01-30T08:30:28.223Z,97775.41
2023-01-30T08:32:55.484Z,97775.56
2023-01-30T08:35:22.479Z,97781.22
2023-01-30T08:37:49.549Z,97776.13
2023-01-30T08:40:17.207Z,97768.31
2023-01-30T08:42:45.693Z,97758.69
2023-01-30T08:45:14.138Z,97771.81
2023-01-30T08:47:41.374Z,97775.78
2023-01-30T08:50:08.920Z,97754.97
2023-01-30T08:52:35.923Z,97763.09
2023-01-30T08:55:02.987Z,97748.91
2023-01-30T08:57:30.136Z,97755.50
2023-01-30T08:59:57.219Z,97760.44
2023-01-30T09:02:24.423Z,97749.28
2023-01-30T09:04:51.424Z,97727.03
2023-01-30T09:07:18.618Z,97740.69
2023-01-30T09:09:45.619Z,97741.78
2023-01-30T09:12:12.748Z,97735.13
2023-01-30T09:14:39.940Z,97734.47
2023-01-30T09:17:06.907Z,97730.25
2023-01-30T09:19:36.119Z,97726.09
2023-01-30T09:22:03.621Z,97721.44
2023-01-30T09:24:30.769Z,97715.59
2023-01-30T09:26:59.251Z,97713.34
2023-01-30T09:29:26.936Z,97712.09
2023-01-30T09:31:57.308Z,97704.22
2023-01-30T09:34:39.037Z,97699.91
2023-01-30T09:37:14.348Z,97699.41
2023-01-30T09:39:41.569Z,97691.88
2023-01-30T09:42:42.854Z,97691.06
2023-01-30T09:45:19.045Z,97674.41
2023-01-30T09:47:52.409Z,97676.22
2023-01-30T09:50:20.550Z,97664.72
2023-01-30T09:52:58.138Z,97654.13
2023-01-30T09:55:27.163Z,97664.25
2023-01-30T09:57:54.471Z,97652.09
2023-01-30T10:00:26.222Z,97664.06
2023-01-30T10:03:08.548Z,97653.72
2023-01-30T10:05:35.567Z,97648.56
2023-01-30T10:08:24.536Z,97644.31
2023-01-30T10:11:08.812Z,97625.38
2023-01-30T10:13:36.832Z,97639.22
2023-01-30T10:16:24.780Z,97636.13
2023-01-30T10:19:10.983Z,97631.25
2023-01-30T10:21:41.053Z,97620.13
2023-01-30T10:24:26.451Z,97614.94
2023-01-30T10:26:53.868Z,97610.97
2023-01-30T10:29:25.072Z,97589.41
2023-01-30T10:32:05.317Z,97617.56
2023-01-30T10:34:34.460Z,97598.09
2023-01-30T10:37:16.983Z,97606.31
2023-01-30T10:39:55.578Z,97596.63
2023-01-30T10:42:40.023Z,97589.13
2023-01-30T10:45:15.360Z,97594.97
2023-01-30T10:47:47.320Z,97596.00
2023-01-30T10:50:31.213Z,97586.41
2023-01-30T10:52:58.107Z,97583.53
2023-01-30T10:55:36.808Z,97592.09
2023-01-30T10:58:10.259Z,97585.84
2023-01-30T11:01:00.392Z,97572.06
2023-01-30T11:03:36.803Z,97576.13
2023-01-30T11:06:07.759Z,97563.22
2023-01-30T11:08:35.932Z,97557.34
2023-01-30T11:11:23.144Z,97561.69
2023-01-30T11:13:50.127Z,97548.69
2023-01-30T11:16:17.275Z,97559.38
2023-01-30T11:21:43.599Z,97554.47
2023-01-30T11:24:19.682Z,97560.66
2023-01-30T11:26:48.475Z,97556.53
2023-01-30T11:29:29.655Z,97550.22
2023-01-30T11:31:57.301Z,97552.31
2023-01-30T11:34:25.621Z,97539.53
2023-01-30T11:36:52.599Z,97534.78
2023-01-30T11:39:23.903Z,97538.72
2023-01-30T11:41:53.840Z,97544.25
2023-01-30T11:44:26.821Z,97539.94
2023-01-30T11:46:54.338Z,97539.00
2023-01-30T11:49:46.631Z,97531.94
2023-01-30T11:52:11.337Z,97530.69
2023-01-30T11:54:40.107Z,97524.53
2023-01-30T11:57:12.068Z,97532.09
2023-01-30T11:59:45.312Z,97527.16
2023-01-30T12:02:15.324Z,97515.28
2023-01-30T12:04:56.259Z,97508.09
2023-01-30T12:07:25.368Z,97512.66
2023-01-30T12:09:54.282Z,97510.25
2023-01-30T12:12:41.542Z,97492.03
2023-01-30T12:15:17.606Z,97501.94
2023-01-30T12:17:49.529Z,97495.72
2023-01-30T12:20:33.351Z,97497.63
2023-01-30T12:23:03.299Z,97495.00
2023-01-30T12:25:53.189Z,97490.56
2023-01-30T12:28:26.771Z,97486.31
2023-01-30T12:30:56.818Z,97486.50
2023-01-30T12:33:27.176Z,97482.22
2023-01-30T12:35:57.286Z,97481.28
2023-01-30T12:38:43.276Z,97477.66
2023-01-30T12:41:12.977Z,97470.44
2023-01-30T12:43:47.324Z,97479.31
2023-01-30T12:46:34.504Z,97460.25
2023-01-30T12:49:20.485Z,97464.84
2023-01-30T12:51:49.946Z,97468.44
2023-01-30T12:54:32.343Z,97451.22
2023-01-30T12:57:08.682Z,97453.38
2023-01-30T12:59:53.808Z,97445.78
2023-01-30T13:02:27.211Z,97446.94
2023-01-30T13:05:04.110Z,97451.38
2023-01-30T13:08:07.450Z,97443.97
2023-01-30T13:10:39.779Z,97455.34
2023-01-30T13:13:17.871Z,97446.25
2023-01-30T13:15:52.376Z,97441.00
2023-01-30T13:18:26.255Z,97432.00
2023-01-30T13:20:53.507Z,97436.94
2023-01-30T13:23:23.783Z,97424.63
2023-01-30T13:26:09.495Z,97417.22
2023-01-30T13:28:57.035Z,97424.44
2023-01-30T13:31:28.327Z,97423.44
2023-01-30T13:34:21.968Z,97421.47
2023-01-30T13:37:16.182Z,97428.06
2023-01-30T13:39:55.982Z,97409.81
2023-01-30T13:42:41.759Z,97413.75
2023-01-30T13:45:16.263Z,97406.88
2023-01-30T13:48:09.734Z,97421.66
2023-01-30T13:50:49.141Z,97413.16
2023-01-30T13:53:25.817Z,97399.53
2023-01-30T13:55:56.033Z,97400.31
2023-01-30T13:58:44.444Z,97406.09
2023-01-30T14:01:12.912Z,97410.69
2023-01-30T14:03:41.432Z,97396.03
2023-01-30T14:06:27.764Z,97395.41
2023-01-30T14:08:59.424Z,97396.03
2023-01-30T14:11:34.082Z,97392.25
2023-01-30T14:14:07.047Z,97392.25
2023-01-30T14:16:41.335Z,97400.31
2023-01-30T14:19:34.786Z,97404.59
2023-01-30T14:22:17.738Z,97387.81
2023-01-30T14:24:44.835Z,97396.53
2023-01-30T14:27:28.228Z,97383.50
2023-01-30T14:29:55.985Z,97395.69
2023-01-30T14:32:23.165Z,97391.78
2023-01-30T14:35:10.592Z,97400.66
2023-01-30T14:37:41.762Z,97381.75
2023-01-30T14:40:24.109Z,97397.22
2023-01-30T14:43:10.031Z,97385.69
2023-01-30T14:45:49.458Z,97389.00
2023-01-30T14:48:27.942Z,97391.63
2023-01-30T14:51:15.213Z,97381.44
2023-01-30T14:53:51.350Z,97377.81
2023-01-30T14:56:20.000Z,97377.81
2023-01-30T14:58:51.776Z,97379.44
2023-01-30T15:01:19.461Z,97397.72
2023-01-30T15:03:49.148Z,97397.72
2023-01-30T15:06:16.979Z,97392.13
2023-01-30T15:08:46.152Z,97393.75
2023-01-30T15:11:26.397Z,97379.78
2023-01-30T15:13:59.627Z,97368.13
2023-01-30T15:16:45.797Z,97369.13
2023-01-30T15:19:32.423Z,97372.56
2023-01-30T15:22:19.500Z,97368.31
2023-01-30T15:24:55.636Z,97373.56
2023-01-30T15:27:32.282Z,97382.41
2023-01-30T15:30:00.170Z,97347.59
2023-01-30T15:32:28.560Z,97371.59
2023-01-30T15:35:00.601Z,97368.31
2023-01-30T15:37:38.200Z,97373.72
2023-01-30T15:40:21.780Z,97364.69
2023-01-30T15:42:52.900Z,97358.09
2023-01-30T15:45:38.565Z,97373.56
2023-01-30T15:48:16.171Z,97383.75
2023-01-30T15:50:56.255Z,97368.13
2023-01-30T15:53:32.283Z,97362.69
2023-01-30T15:56:01.829Z,97346.28
2023-01-30T15:58:29.487Z,97355.16
2023-01-30T16:01:01.057Z,97332.94
2023-01-30T16:03:32.259Z,97337.06
2023-01-30T16:05:59.424Z,97335.41
2023-01-30T16:08:36.286Z,97323.13
2023-01-30T16:11:03.409Z,97332.16
2023-01-30T16:13:30.769Z,97308.16
2023-01-30T16:16:04.978Z,97329.84
2023-01-30T16:19:01.755Z,97337.72
2023-01-30T16:21:33.611Z,97334.44
2023-01-30T16:24:01.810Z,97325.22
2023-01-30T16:26:29.938Z,97346.94
2023-01-30T16:29:01.639Z,97326.38
2023-01-30T16:31:39.958Z,97321.78
2023-01-30T16:34:22.422Z,97337.41
2023-01-30T16:36:49.383Z,97341.84
2023-01-30T16:39:42.861Z,97340.03
2023-01-30T16:42:22.873Z,97344.00
2023-01-30T16:44:52.155Z,97334.31
2023-01-30T16:47:23.762Z,97331.81
2023-01-30T16:49:53.373Z,97325.22
2023-01-30T16:52:25.260Z,97318.00
2023-01-30T16:54:56.773Z,97321.78
2023-01-30T16:57:42.218Z,97299.91
2023-01-30T17:00:23.889Z,97320.13
2023-01-30T17:02:59.047Z,97327.22
2023-01-30T17:05:28.132Z,97319.50
2023-01-30T17:07:58.652Z,97322.25
2023-01-30T17:11:02.311Z,97335.09
2023-01-30T17:13:35.694Z,97323.94
2023-01-30T17:16:24.688Z,97333.78
2023-01-30T17:18:53.092Z,97329.50
2023-01-30T17:21:22.038Z,97322.91
2023-01-30T17:23:59.137Z,97320.97
2023-01-30T17:26:28.271Z,97316.66
2023-01-30T17:28:55.720Z,97318.47
2023-01-30T17:31:23.149Z,97311.41
2023-01-30T17:33:50.305Z,97309.47
2023-01-30T17:36:24.401Z,97318.16
2023-01-30T17:38:51.614Z,97318.34
2023-01-30T17:41:26.988Z,97338.53
2023-01-30T17:43:55.011Z,97328.69
2023-01-30T17:46:37.804Z,97330.63
2023-01-30T17:49:15.676Z,97332.78
2023-01-30T17:51:49.013Z,97346.41
2023-01-30T17:54:18.847Z,97339.69
2023-01-30T17:56:47.515Z,97341.31
2023-01-30T17:59:18.807Z,97340.34
2023-01-30T18:01:51.781Z,97336.75
2023-01-30T18:04:20.040Z,97333.13
2023-01-30T18:06:50.905Z,97324.91
2023-01-30T18:09:19.119Z,97346.94
2023-01-30T18:11:49.612Z,97337.38
2023-01-30T18:14:19.498Z,97335.72
2023-01-30T18:16:47.236Z,97344.63
2023-01-30T18:19:16.059Z,97344.91
2023-01-30T18:21:45.814Z,97345.75
2023-01-30T18:24:13.239Z,97327.66
2023-01-30T18:26:41.082Z,97333.28
2023-01-30T18:29:12.759Z,97336.41
2023-01-30T18:31:40.436Z,97362.84
2023-01-30T18:34:08.176Z,97329.16
2023-01-30T18:36:35.703Z,97333.59
2023-01-30T18:39:03.501Z,97350.19
2023-01-30T18:41:30.760Z,97351.81
2023-01-30T18:43:59.519Z,97348.38
2023-01-30T18:46:27.152Z,97314.38
2023-01-30T18:48:55.027Z,97338.84
2023-01-30T18:51:24.020Z,97341.97
2023-01-30T18:53:52.215Z,97352.47
2023-01-30T18:56:21.512Z,97353.28
2023-01-30T18:58:54.741Z,97346.72
2023-01-30T19:01:28.773Z,97337.38
2023-01-30T19:03:59.852Z,97335.56
2023-01-30T19:06:28.112Z,97350.19
2023-01-30T19:08:56.935Z,97347.56
2023-01-30T19:11:44.593Z,97353.81
2023-01-30T19:14:29.514Z,97328.50
2023-01-30T19:16:56.593Z,97345.91
2023-01-30T19:19:28.425Z,97331.78
2023-01-30T19:21:55.460Z,97337.34
2023-01-30T19:24:23.833Z,97326.53
2023-01-30T19:26:50.954Z,97322.88
2023-01-30T19:29:18.558Z,97318.09
2023-01-30T19:31:47.556Z,97343.56
2023-01-30T19:34:14.780Z,97348.66
2023-01-30T19:36:41.837Z,97336.97
2023-01-30T19:39:10.695Z,97342.91
2023-01-30T19:41:38.321Z,97343.53
2023-01-30T19:44:06.806Z,97341.59
2023-01-30T19:46:36.240Z,97340.59
2023-01-30T19:49:04.151Z,97341.41
2023-01-30T19:51:32.752Z,97342.56
2023-01-30T19:54:01.612Z,97338.09
2023-01-30T19:56:29.223Z,97336.78
2023-01-30T19:58:58.614Z,97339.22
2023-01-30T20:01:29.812Z,97341.03
2023-01-30T20:03:57.451Z,97342.72
2023-01-30T20:06:29.659Z,97337.44
2023-01-30T20:09:07.222Z,97342.19
2023-01-30T20:11:35.623Z,97343.31
2023-01-30T20:14:05.030Z,97333.97
2023-01-30T20:16:32.292Z,97337.56
2023-01-30T20:19:00.487Z,97338.06
2023-01-30T20:21:28.768Z,97339.00
2023-01-30T20:23:56.223Z,97337.19
2023-01-30T20:26:28.177Z,97341.50
2023-01-30T20:28:56.269Z,97343.97
2023-01-30T20:31:24.592Z,97344.13
2023-01-30T20:33:52.009Z,97338.19
2023-01-30T20:36:20.030Z,97349.03
2023-01-30T20:38:48.068Z,97347.34
2023-01-30T20:41:16.850Z,97337.69
2023-01-30T20:43:45.280Z,97344.13
2023-01-30T20:46:16.944Z,97346.06
2023-01-30T20:48:44.564Z,97342.09
2023-01-30T20:51:12.872Z,97334.03
2023-01-30T20:53:40.513Z,97324.34
2023-01-30T20:56:08.950Z,97334.69
2023-01-30T20:58:42.757Z,97335.50
2023-01-30T21:01:17.899Z,97329.56
2023-01-30T21:03:46.301Z,97326.28
2023-01-30T21:06:13.349Z,97327.09
2023-01-30T21:09:00.494Z,97331.69
2023-01-30T21:11:27.545Z,97321.66
2023-01-30T21:13:57.116Z,97333.81
2023-01-30T21:16:32.475Z,97335.44
2023-01-30T21:19:02.253Z,97331.00
2023-01-30T21:21:32.034Z,97331.81
2023-01-30T21:24:00.844Z,97343.31
2023-01-30T21:26:28.901Z,97334.91
2023-01-30T21:28:56.929Z,97340.63
2023-01-30T21:31:27.195Z,97351.66
2023-01-30T21:33:59.736Z,97337.84
2023-01-30T21:36:27.574Z,97332.41
2023-01-30T21:39:13.251Z,97344.91
2023-01-30T21:42:04.993Z,97341.63
2023-01-30T21:44:39.240Z,97343.59
2023-01-30T21:47:06.910Z,97345.09
2023-01-30T21:49:35.182Z,97346.75
2023-01-30T21:52:02.190Z,97329.97
2023-01-30T21:54:29.248Z,97348.88
2023-01-30T21:56:56.898Z,97340.63
2023-01-30T21:59:24.159Z,97341.75
2023-01-30T22:01:51.203Z,97340.94
2023-01-30T22:04:19.662Z,97334.03
2023-01-30T22:06:46.621Z,97342.72
2023-01-30T22:09:14.524Z,97343.25
2023-01-30T22:11:41.886Z,97347.53
2023-01-30T22:14:09.004Z,97343.09
2023-01-30T22:16:36.294Z,97352.41
2023-01-30T22:19:04.780Z,97355.88
2023-01-30T22:21:36.282Z,97351.44
2023-01-30T22:24:05.655Z,97344.38
2023-01-30T22:26:32.763Z,97349.16
2023-01-30T22:29:00.492Z,97353.06
2023-01-30T22:31:28.796Z,97342.56
2023-01-30T22:33:56.630Z,97344.06
2023-01-30T22:36:24.809Z,97341.63
2023-01-30T22:38:51.983Z,97344.53
2023-01-30T22:41:20.546Z,97343.56
2023-01-30T22:43:50.702Z,97335.16
2023-01-30T22:46:18.707Z,97341.25
2023-01-30T22:48:46.133Z,97348.81
2023-01-30T22:51:14.671Z,97347.69
2023-01-30T22:53:43.366Z,97343.91
2023-01-30T22:56:12.396Z,97355.69
2023-01-30T22:58:39.477Z,97342.94
2023-01-30T23:01:18.131Z,97338.00
2023-01-30T23:03:45.888Z,97339.00
2023-01-30T23:06:17.068Z,97336.00
2023-01-30T23:08:45.899Z,97338.00
2023-01-30T23:11:18.193Z,97350.81
2023-01-30T23:13:46.450Z,97347.34
2023-01-30T23:16:14.607Z,97359.31
2023-01-30T23:18:56.859Z,97346.19
2023-01-30T23:21:36.092Z,97351.28
2023-01-30T23:24:04.996Z,97331.56
2023-01-30T23:26:32.787Z,97352.56
2023-01-30T23:29:00.948Z,97349.13
2023-01-30T23:31:28.741Z,97352.25
2023-01-30T23:34:00.322Z,97348.16
2023-01-30T23:36:27.316Z,97351.75
2023-01-30T23:38:55.708Z,97339.91
2023-01-30T23:41:27.329Z,97341.75
2023-01-30T23:43:54.583Z,97337.78
2023-01-30T23:46:23.453Z,97328.59
2023-01-30T23:48:54.868Z,97342.91
2023-01-30T23:51:24.143Z,97338.63
2023-01-30T23:53:51.836Z,97337.78
2023-01-30T23:56:19.719Z,97330.13
2023-01-30T23:58:47.307Z,97335.22
